Latest Weather Observations for Naracoorte

IDS60801

Issued at 3:11 pm CST Saturday 4 July 2020 (issued every 10 minutes, with the page automatically refreshed every 10 minutes)

About weather observations | Map of weather stations | Latest weather observations for SA | Other Formats
Station Details ID: 026099 Name: NARACOORTE AERODROME Lat: -36.98 Lon: 140.73 Height: 49.72 m
Data from the previous 72 hours. | See also: Recent months at Naracoorte
Date/Time
CST
Temp
°C
App
Temp
°C
Dew
Point
°C
Rel
Hum
%
Delta-T
°C
Wind Press
QNH
hPa
Press
MSL
hPa
Rain since
9am
mm
Dir  Spd
km/h
Gust
km/h
Spd
kts
Gust
kts
04/03:00pm 12.6 9.4 11.3 92 0.7 SSW 19 28 10 15 1027.1 1027.2 1.2
04/02:30pm 13.4 9.5 12.1 92 0.7 SW 24 32 13 17 1027.0 1027.1 1.0
04/02:00pm 12.9 8.2 10.8 87 1.1 WSW 26 32 14 17 1026.8 1026.9 1.0
04/01:30pm 12.8 9.3 11.0 89 0.9 WSW 20 24 11 13 1026.9 1027.0 1.0
04/01:00pm 13.0 8.5 10.2 83 1.4 WSW 24 30 13 16 1027.0 1027.1 0.6
04/12:30pm 11.9 7.5 10.3 90 0.8 WSW 24 37 13 20 1027.3 1027.4 0.6
04/12:00pm 12.8 8.6 9.8 82 1.5 SW 22 28 12 15 1027.6 1027.7 0.6
04/11:30am 12.1 7.5 9.8 86 1.2 SW 24 30 13 16 1028.0 1028.1 0.6
04/11:00am 11.1 5.8 9.9 92 0.6 SW 28 37 15 20 1028.3 1028.4 0.6
04/10:30am 11.0 6.1 9.9 93 0.6 SSW 26 33 14 18 1028.6 1028.7 0.6
04/10:00am 11.4 6.9 10.1 92 0.7 WSW 24 32 13 17 1028.2 1028.3 0.0
04/09:30am 11.2 7.8 10.4 95 0.4 WSW 19 32 10 17 1027.8 1027.9 0.0
04/09:00am 9.9 8.1 9.3 96 0.3 WNW 9 13 5 7 1027.6 1027.7 1.0
04/08:30am 7.1 4.6 6.5 96 0.3 NW 9 13 5 7 1027.5 1027.6 1.0
04/08:00am 7.2 3.9 6.6 96 0.3 NW 13 17 7 9 1027.4 1027.5 1.0
04/07:30am 7.1 3.8 6.5 96 0.3 NW 13 17 7 9 1027.3 1027.4 0.8
04/07:00am 6.2 3.1 5.5 95 0.3 NNW 11 13 6 7 1027.1 1027.2 0.8
04/06:30am 6.1 3.4 5.4 95 0.3 N 9 11 5 6 1027.0 1027.1 0.8
04/06:00am 5.8 2.9 4.9 94 0.4 NNW 9 13 5 7 1026.9 1027.0 0.8
04/05:30am 6.4 3.3 5.5 94 0.4 NNW 11 15 6 8 1026.7 1026.8 0.8
04/05:00am 6.0 2.8 5.0 93 0.4 NNW 11 15 6 8 1026.6 1026.7 0.8
04/04:30am 5.8 2.1 4.6 92 0.5 NNW 13 15 7 8 1026.8 1026.9 0.8
04/04:00am 5.9 2.6 4.7 92 0.5 NNW 11 15 6 8 1026.9 1027.0 0.8
04/03:30am 5.8 2.5 4.6 92 0.5 NNW 11 13 6 7 1026.9 1027.0 0.8
04/03:00am 6.1 3.2 4.9 92 0.5 NNW 9 11 5 6 1027.1 1027.2 0.8
04/02:30am 6.4 3.6 5.0 91 0.6 NNW 9 11 5 6 1027.2 1027.3 0.8
04/02:00am 6.5 3.7 5.1 91 0.6 WNW 9 11 5 6 1027.3 1027.4 0.8
04/01:30am 6.6 3.8 5.2 91 0.6 NW 9 11 5 6 1027.1 1027.2 0.8
04/01:00am 6.4 3.6 5.0 91 0.6 NNW 9 11 5 6 1027.3 1027.4 0.8
04/12:30am 6.6 3.4 5.2 91 0.6 NW 11 13 6 7 1027.3 1027.4 0.8
04/12:00am 7.3 4.7 6.1 92 0.5 NW 9 11 5 6 1027.2 1027.3 0.8
 
Date/Time
CST
Temp
°C
App
Temp
°C
Dew
Point
°C
Rel
Hum
%
Delta-T
°C
Wind Press
QNH
hPa
Press
MSL
hPa
Rain since
9am
mm
Dir  Spd
km/h
Gust
km/h
Spd
kts
Gust
kts
03/11:30pm 7.1 4.0 5.7 91 0.6 W 11 13 6 7 1027.4 1027.5 0.8
03/11:00pm 7.0 3.9 5.6 91 0.6 WSW 11 13 6 7 1027.4 1027.5 0.8
03/10:30pm 6.7 3.5 5.2 90 0.7 WSW 11 13 6 7 1027.3 1027.4 0.8
03/10:00pm 7.3 3.1 5.6 89 0.8 WSW 17 20 9 11 1027.1 1027.2 0.8
03/09:30pm 6.4 2.4 4.7 89 0.7 WSW 15 19 8 10 1027.1 1027.2 0.8
03/09:00pm 6.4 1.9 4.4 87 0.9 W 17 20 9 11 1026.9 1027.0 0.8
03/08:30pm 6.2 2.2 4.7 90 0.6 W 15 17 8 9 1026.7 1026.8 0.8
03/08:00pm 5.8 2.1 4.3 90 0.6 W 13 17 7 9 1026.4 1026.5 0.8
03/07:30pm 5.6 1.4 3.8 88 0.8 WSW 15 15 8 8 1026.1 1026.2 0.8
03/07:00pm 3.7 0.0 2.1 89 0.6 WSW 11 13 6 7 1025.9 1026.0 0.8
03/06:30pm 4.1 1.7 2.3 88 0.7 SSW 4 11 2 6 1025.6 1025.7 0.8
03/06:00pm 5.1 1.1 3.0 86 0.9 SW 13 17 7 9 1025.2 1025.3 0.8
03/05:30pm 5.9 1.9 3.1 82 1.2 SW 13 15 7 8 1024.8 1024.9 0.8
03/05:00pm 7.3 2.8 4.1 80 1.4 SW 17 20 9 11 1024.4 1024.5 0.8
03/04:30pm 8.7 4.2 4.1 73 2.0 SW 17 20 9 11 1024.0 1024.1 0.8
03/04:00pm 9.2 3.3 3.8 69 2.4 SW 24 30 13 16 1023.5 1023.6 0.8
03/03:30pm 10.9 3.8 3.7 61 3.2 SSW 30 39 16 21 1023.1 1023.2 0.8
03/03:00pm 11.0 3.2 3.1 58 3.4 SSW 33 39 18 21 1022.7 1022.8 0.8
03/02:30pm 10.8 3.4 4.0 63 3.0 SSW 32 41 17 22 1022.2 1022.3 0.8
03/02:00pm 11.9 4.2 5.3 64 3.1 SW 35 43 19 23 1021.7 1021.8 0.8
03/01:30pm 11.0 2.7 4.2 63 3.0 SSW 37 48 20 26 1021.5 1021.6 0.8
03/01:00pm 10.9 3.8 6.3 73 2.2 SSW 33 43 18 23 1021.5 1021.6 0.8
03/12:30pm 10.9 2.8 7.0 77 1.9 SSW 39 46 21 25 1021.2 1021.3 0.8
03/12:00pm 9.6 1.6 7.4 86 1.0 SSW 39 54 21 29 1021.1 1021.2 0.8
03/11:30am 10.6 3.6 8.5 87 1.0 SSW 35 43 19 23 1020.7 1020.8 0.8
03/11:00am 10.1 2.6 8.0 87 1.0 SSW 37 54 20 29 1020.3 1020.3 0.6
03/10:30am 10.9 4.4 8.8 87 1.0 SSW 33 43 18 23 1019.8 1019.8 0.6
03/10:00am 10.8 6.2 9.6 92 0.6 SW 24 32 13 17 1019.4 1019.4 0.6
03/09:30am 10.3 6.0 9.5 95 0.4 W 22 28 12 15 1019.0 1019.0 0.4
03/09:00am 9.5 4.7 8.7 95 0.4 NW 24 32 13 17 1018.3 1018.3 7.0
03/08:30am 9.0 4.4 8.2 95 0.4 NW 22 28 12 15 1018.1 1018.1 7.0
03/08:00am 8.7 4.4 7.9 95 0.4 NNW 20 32 11 17 1018.1 1018.1 6.6
03/07:30am 8.6 4.5 7.8 95 0.4 NNW 19 24 10 13 1017.7 1017.7 5.8
03/07:00am 8.3 3.9 7.5 95 0.4 NNW 20 30 11 16 1017.6 1017.6 5.0
03/06:30am 8.0 3.2 7.2 95 0.4 NNW 22 28 12 15 1017.6 1017.6 4.2
03/06:00am 8.0 3.6 7.2 95 0.4 NNW 20 28 11 15 1017.3 1017.3 4.0
03/05:30am 8.2 2.3 7.4 95 0.4 NNW 28 39 15 21 1017.2 1017.2 4.0
03/05:00am 8.2 3.4 7.4 95 0.4 NNW 22 30 12 16 1017.6 1017.6 3.4
03/04:30am 7.7 3.4 7.0 95 0.3 NNW 19 28 10 15 1017.5 1017.5 2.6
03/04:00am 7.6 3.0 6.7 94 0.4 NNW 20 30 11 16 1017.6 1017.6 2.6
03/03:30am 7.7 3.4 6.8 94 0.4 N 19 28 10 15 1018.1 1018.1 2.6
03/03:00am 7.5 3.5 6.6 94 0.4 N 17 22 9 12 1018.1 1018.1 2.6
03/02:30am 7.4 3.4 6.5 94 0.4 N 17 20 9 11 1018.4 1018.4 2.6
03/02:00am 7.0 2.9 6.1 94 0.4 NNW 17 22 9 12 1018.5 1018.5 2.6
03/01:30am 6.5 2.7 5.6 94 0.4 NNW 15 20 8 11 1018.5 1018.5 2.6
03/01:00am 5.9 1.5 5.0 94 0.4 NNW 17 20 9 11 1018.5 1018.5 2.6
03/12:30am 5.9 1.9 5.0 94 0.4 NNW 15 19 8 10 1018.7 1018.7 2.6
03/12:00am 5.6 1.2 4.7 94 0.4 NNW 17 20 9 11 1018.7 1018.7 2.6
 
Date/Time
CST
Temp
°C
App
Temp
°C
Dew
Point
°C
Rel
Hum
%
Delta-T
°C
Wind Press
QNH
hPa
Press
MSL
hPa
Rain since
9am
mm
Dir  Spd
km/h
Gust
km/h
Spd
kts
Gust
kts
02/11:30pm 5.5 1.1 4.5 93 0.4 NNW 17 20 9 11 1018.7 1018.7 2.4
02/11:00pm 5.5 1.1 4.5 93 0.4 NNW 17 22 9 12 1018.8 1018.8 2.4
02/10:30pm 4.9 1.1 3.7 92 0.5 N 13 15 7 8 1018.6 1018.6 2.4
02/10:00pm 5.6 1.9 4.4 92 0.5 NNW 13 19 7 10 1018.6 1018.6 2.4
02/09:30pm 5.7 1.6 4.3 91 0.6 NNW 15 17 8 9 1018.5 1018.5 2.4
02/09:00pm 5.7 2.0 4.2 90 0.6 NNW 13 17 7 9 1018.3 1018.3 2.4
02/08:30pm 5.9 1.8 4.5 91 0.6 NNW 15 17 8 9 1018.0 1018.0 2.4
02/08:00pm 5.7 1.6 4.2 90 0.6 NNW 15 17 8 9 1017.9 1017.9 2.4
02/07:30pm 7.0 3.1 5.5 90 0.7 NW 15 19 8 10 1017.5 1017.5 2.4
02/07:00pm 7.2 3.8 5.7 90 0.7 NW 13 15 7 8 1017.1 1017.1 2.4
02/06:30pm 7.6 3.4 5.9 89 0.8 WNW 17 22 9 12 1017.0 1017.0 2.4
02/06:00pm 7.9 4.2 6.4 90 0.7 NW 15 19 8 10 1016.6 1016.7 1.6
02/05:30pm 7.2 4.1 5.7 90 0.7 WNW 11 15 6 8 1016.3 1016.4 1.6
02/05:00pm 8.0 4.7 6.3 89 0.8 NW 13 15 7 8 1015.7 1015.8 1.6
02/04:30pm 8.2 4.5 6.3 88 0.9 NW 15 20 8 11 1015.5 1015.6 1.6
02/04:00pm 8.3 2.5 6.1 86 1.0 W 26 41 14 22 1015.4 1015.5 1.4
02/03:30pm 10.9 6.3 6.6 75 2.0 WNW 20 28 11 15 1015.0 1015.1 0.6
02/03:00pm 10.4 4.1 5.6 72 2.2 WNW 28 35 15 19 1014.7 1014.8 0.6
02/02:30pm 11.4 5.0 7.1 75 2.1 NW 30 39 16 21 1014.4 1014.5 0.6
02/02:00pm 11.6 4.5 6.5 71 2.4 NW 33 44 18 24 1014.2 1014.3 0.6
02/01:30pm 11.3 6.0 7.0 75 2.1 NNW 24 33 13 18 1014.1 1014.2 0.6
02/01:00pm 11.6 6.8 7.5 76 2.0 NNW 22 32 12 17 1014.3 1014.4 0.6
02/12:30pm 10.3 5.3 6.5 77 1.8 NW 22 39 12 21 1014.3 1014.4 0.6
02/12:00pm 11.5 6.9 8.0 79 1.7 NNW 22 32 12 17 1014.3 1014.4 0.0
02/11:30am 11.2 6.2 6.5 73 2.2 NNW 22 32 12 17 1014.6 1014.7 0.0
02/11:00am 11.1 7.2 7.0 76 2.0 NNW 17 24 9 13 1014.5 1014.6 0.0
02/10:30am 10.8 6.8 6.6 75 2.0 NNW 17 22 9 12 1014.6 1014.7 0.0
02/10:00am 10.4 6.4 6.7 78 1.7 NNW 17 24 9 13 1014.4 1014.5 0.0
02/09:30am 9.2 5.5 6.3 82 1.3 NNW 15 22 8 12 1013.9 1014.0 0.0
02/09:00am 8.3 4.9 5.9 85 1.1 NNW 13 17 7 9 1013.6 1013.7 12.0
02/08:30am 7.1 3.5 5.1 87 0.9 NNW 13 19 7 10 1013.4 1013.5 12.0
02/08:00am 6.6 2.6 4.8 88 0.8 N 15 19 8 10 1012.9 1013.0 12.0
02/07:30am 6.2 2.0 4.0 86 0.9 NNW 15 20 8 11 1012.6 1012.7 12.0
02/07:00am 6.4 2.7 4.4 87 0.9 WNW 13 20 7 11 1012.5 1012.6 12.0
02/06:30am 7.2 3.2 4.7 84 1.1 NW 15 19 8 10 1011.7 1011.8 12.0
02/06:00am 7.2 3.2 4.9 85 1.0 NW 15 19 8 10 1011.4 1011.5 12.0
02/05:30am 6.9 3.3 5.2 89 0.8 NNW 13 17 7 9 1010.8 1010.9 12.0
02/05:00am 6.9 3.4 5.4 90 0.7 N 13 17 7 9 1010.6 1010.7 12.0
02/04:30am 7.5 4.4 5.6 88 0.9 WNW 11 28 6 15 1010.3 1010.4 12.0
02/04:00am 8.5 4.2 6.8 89 0.8 WNW 19 30 10 16 1010.1 1010.2 12.0
02/03:30am 8.2 4.2 6.7 90 0.7 NW 17 20 9 11 1009.4 1009.5 12.0
02/03:00am 8.5 6.1 7.1 91 0.7 NNW 9 13 5 7 1009.0 1009.1 12.0
02/02:30am 8.6 5.9 7.4 92 0.6 SW 11 17 6 9 1008.8 1008.9 12.0
02/02:00am 8.5 4.1 7.3 92 0.6 NNW 20 28 11 15 1008.2 1008.3 11.8
02/01:30am 8.5 4.6 7.3 92 0.6 NNW 17 22 9 12 1007.8 1007.9 11.6
02/01:00am 8.7 4.3 7.5 92 0.6 NNW 20 28 11 15 1007.7 1007.8 11.4
02/12:30am 8.7 4.5 7.3 91 0.7 NNW 19 24 10 13 1007.1 1007.2 11.0
02/12:00am 8.5 5.0 7.1 91 0.7 NW 15 24 8 13 1007.5 1007.6 10.2
 
Date/Time
CST
Temp
°C
App
Temp
°C
Dew
Point
°C
Rel
Hum
%
Delta-T
°C
Wind Press
QNH
hPa
Press
MSL
hPa
Rain since
9am
mm
Dir  Spd
km/h
Gust
km/h
Spd
kts
Gust
kts
01/11:30pm 7.9 4.7 6.8 93 0.5 W 13 19 7 10 1006.7 1006.8 10.2
01/11:00pm 7.9 3.6 7.0 94 0.4 N 19 28 10 15 1006.1 1006.2 10.2
01/10:30pm 6.7 3.2 5.5 92 0.5 N 13 17 7 9 1006.4 1006.5 10.0
01/10:00pm 6.3 1.9 4.9 91 0.6 NW 17 22 9 12 1006.8 1006.9 9.6
01/09:32pm 8.3 3.7 6.6 89 0.8 NW 20 50 11 27 1007.3 1007.4 6.2
01/09:30pm 8.8 4.9 7.3 90 0.7 NNW 17 24 9 13 1006.3 1006.4 6.2
01/09:00pm 9.0 4.8 7.3 89 0.8 NNW 19 22 10 12 1006.0 1006.1 6.2
01/08:30pm 9.3 5.2 7.7 90 0.8 NW 19 26 10 14 1005.6 1005.7 6.2
01/08:00pm 9.6 4.2 7.9 89 0.8 WNW 26 35 14 19 1006.0 1006.1 5.8
01/07:30pm 9.8 4.1 8.2 90 0.8 NW 28 37 15 20 1006.5 1006.6 4.6
01/07:00pm 10.2 4.2 8.5 89 0.8 WNW 30 39 16 21 1006.2 1006.3 2.8
01/06:59pm 10.2 3.8 8.5 89 0.8 WNW 32 43 17 23 1006.2 1006.3 2.8
01/06:30pm 10.7 2.6 8.6 87 1.0 W 41 56 22 30 1005.1 1005.2 1.8
01/06:21pm 11.0 3.7 8.8 86 1.1 W 37 56 20 30 1005.0 1005.1 1.6
01/06:00pm 11.8 3.0 7.9 77 1.9 WNW 44 91 24 49 1004.7 1004.8 1.6
01/05:58pm 12.1 3.9 8.0 76 2.0 WNW 41 91 22 49 1004.8 1004.9 1.6
01/05:55pm 12.7 5.4 7.4 70 2.6 NW 35 91 19 49 1004.6 1004.7 1.6
01/05:54pm 13.4 6.7 7.4 67 2.9 NNW 32 91 17 49 1004.3 1004.4 1.6
01/05:53pm 15.1 9.8 8.3 64 3.4 NNW 26 69 14 37 1003.9 1003.9 1.6
01/05:30pm 15.4 9.4 8.6 64 3.5 NW 30 43 16 23 1003.1 1003.1 1.6
01/05:08pm 14.7 8.7 8.6 67 3.1 NNW 30 57 16 31 1003.3 1003.3 1.6
01/05:05pm 14.7 10.1 8.0 64 3.4 NNW 22 48 12 26 1003.5 1003.5 1.4
01/05:00pm 16.1 12.2 7.3 56 4.4 N 17 24 9 13 1002.7 1002.7 0.0
01/04:30pm 17.1 12.4 6.0 48 5.4 N 20 28 11 15 1002.7 1002.7 0.0
01/04:00pm 17.7 11.3 5.0 43 6.1 N 28 41 15 22 1002.9 1002.9 0.0
01/03:30pm 18.3 11.4 4.8 41 6.5 N 30 39 16 21 1003.2 1003.2 0.0

Other formats

Comma delimited format used in spreadsheet applications
http://www.bom.gov.au/fwo/IDS60801/IDS60801.94820.axf

JavaScript Object Notation format (JSON) in row-major order
http://www.bom.gov.au/fwo/IDS60801/IDS60801.94820.json

Data quality

Most of these data are generated automatically and are frequently updated. Quality checks on data are not normally performed. It is possible for incorrect values to appear. Refer to information at About Latest Weather Observations and please check the disclaimer before using these data.